This is the latest recevied weather packets stored in our database for station/object W9LRT-WX. If no packets are shown the sender has not sent any weather packets the latest 10 day(s).
| Time | Temp. | Humidity | Pressure | Rain* | Wind** | Luminosity | Snow |
|---|---|---|---|---|---|---|---|
| 1777850415 | 12.22° C | 77% | 1007.9 hPa | 0 mm | - | 183 W/m² | - |
| 1777849518 | 11.67° C | 78% | 1008.1 hPa | 0 mm | - | 274 W/m² | - |
| 1777848610 | 11.67° C | 76% | 1008.4 hPa | 0 mm | - | 95 W/m² | - |
| 1777847710 | 12.22° C | 73% | 1008.5 hPa | 0 mm | - | 387 W/m² | - |
| 1777846809 | 11.67° C | 75% | 1008.7 hPa | 0 mm | - | 142 W/m² | - |
| 1777845910 | 11.11° C | 76% | 1008.8 hPa | 0 mm | - | 207 W/m² | - |
| 1777845009 | 10.56° C | 78% | 1009 hPa | 0 mm | - | 211 W/m² | - |
| 1777844110 | 10.56° C | 80% | 1009 hPa | 0 mm | - | 315 W/m² | - |
| 1777843209 | 10° C | 82% | 1009.4 hPa | 0 mm | - | 239 W/m² | - |
| 1777842309 | 9.44° C | 82% | 1009.5 hPa | 0 mm | - | 125 W/m² | - |
| 1777841411 | 9.44° C | 83% | 1009.7 hPa | 0 mm | - | 113 W/m² | - |
| 1777840509 | 9.44° C | 82% | 1010 hPa | 0 mm | - | 165 W/m² | - |
| 1777839610 | 9.44° C | 82% | 1010.1 hPa | 0 mm | - | 265 W/m² | - |
| 1777838710 | 9.44° C | 82% | 1010.7 hPa | 0 mm | - | 123 W/m² | - |
| 1777837812 | 9.44° C | 80% | 1011.4 hPa | 0 mm | - | 178 W/m² | - |
| 1777836910 | 10° C | 78% | 1012.1 hPa | 0 mm | - | 98 W/m² | - |
| 1777836009 | 10° C | 78% | 1012.4 hPa | 0 mm | - | 109 W/m² | - |
| 1777835109 | 10.56° C | 74% | 1012.5 hPa | 0 mm | - | 135 W/m² | - |
| 1777834210 | 12.22° C | 63% | 1012.4 hPa | 0 mm | - | 371 W/m² | - |
| 1777833308 | 13.33° C | 59% | 1011.9 hPa | 0 mm | - | 278 W/m² | - |
| 1777832409 | 14.44° C | 55% | 1011.7 hPa | 0 mm | - | 236 W/m² | - |
| 1777831509 | 14.44° C | 54% | 1011.8 hPa | 0 mm | - | 410 W/m² | - |
| 1777830609 | 15° C | 54% | 1011.6 hPa | 0 mm | - | 513 W/m² | - |
| 1777829708 | 15° C | 52% | 1012 hPa | 0 mm | - | 663 W/m² | - |
| 1777828807 | 15° C | 51% | 1012.2 hPa | 0 mm | - | 573 W/m² | - |
* Rain latest hour (hover to see other rain measurements)
** Current wind speed in m/s (hover to see current wind gust speed)